Luchthavens in de buurt

   
EHBK - Beek Netherlands
Afstand tot: NO 12 km
Gewijzigd: 22-08-2019 17:25
Helder  
Helder  
   Wind: varieert 7.4 km/h
Wind: varieert 7.4 km/h
Temperatuur: 25°C
Dauwpunt: 12°C
Vochtigheid: 44%
Barometer: 1024 hPa
Bewolking: Helder
Zicht: meer dan 10 km
Bewolking: Helder
EHBK 221525Z AUTO VRB04KT 9999 NCD 25/12 Q1024 NOSIG
EHEH - Eindhoven Netherlands
Afstand tot: NNW 70 km
Gewijzigd: 22-08-2019 17:25
Licht bewolkt  
Licht bewolkt  
   Wind: ZW 11.1 km/h
Wind: ZW 11.1 km/h
Temperatuur: 25°C
Dauwpunt: 7°C
Vochtigheid: 32%
Barometer: 1024 hPa
Bewolking: Licht bewolkt
Zicht: meer dan 10 km
Bewolking: Licht bewolkt 11277.6 m
EHEH 221525Z AUTO 23006KT 190V260 9999 FEW370 25/07 Q1024 BLU 24008KT CAVOK
EHRD - Rotterdam Netherlands
Afstand tot: NNO 44 km
Gewijzigd: 22-08-2019 17:25
Helder  
Helder  
   Wind: Westen 18.5 km/h
Wind: Westen 18.5 km/h
Temperatuur: 21°C
Dauwpunt: 11°C
Vochtigheid: 53%
Barometer: 1025 hPa
Bewolking: Helder
Zicht: meer dan 10 km
Bewolking: Helder
EHRD 221525Z AUTO 26010KT 230V300 9999 NCD 21/11 Q1025 NOSIG
EHAM - Amsterdam Netherlands
Afstand tot: NNO 90 km
Gewijzigd: 22-08-2019 17:25
Helder  
Helder  
   Wind: Westen 24.1 km/h
Wind: Westen 24.1 km/h
Temperatuur: 21°C
Dauwpunt: 11°C
Vochtigheid: 53%
Barometer: 1025 hPa
Zicht: meer dan 10 km
Bewolking: Helder
EHAM 221525Z 27013KT CAVOK 21/11 Q1025 NOSIG
EBLG - Luik Belgium
Afstand tot: ZZW 27 km
Gewijzigd: 22-08-2019 17:20
Helder  
Helder  
   Wind: varieert 3.7 km/h
Wind: varieert 3.7 km/h
Temperatuur: 25°C
Dauwpunt: 11°C
Vochtigheid: 42%
Barometer: 1025 hPa
Zicht: meer dan 10 km
Bewolking: Helder
EBLG 221520Z VRB02KT CAVOK 25/11 Q1025 NOSIG
EBBR - Brussel Belgium
Afstand tot: W 81 km
Gewijzigd: 22-08-2019 17:20
Helder  
Helder  
   Wind: WZW 9.3 km/h
Wind: WZW 9.3 km/h
Temperatuur: 24°C
Dauwpunt: 10°C
Vochtigheid: 41%
Barometer: 1025 hPa
Zicht: meer dan 10 km
Bewolking: Helder
EBBR 221520Z 25005KT 160V300 CAVOK 24/10 Q1025 NOSIG
ELLX - Luxembourg Luxembourg
Afstand tot: ONO 11 km
Gewijzigd: 22-08-2019 17:20
Helder  
Helder  
   Wind: Oosten 7.4 km/h
Wind: Oosten 7.4 km/h
Temperatuur: 24°C
Dauwpunt: 10°C
Vochtigheid: 41%
Barometer: 1025 hPa
Zicht: meer dan 10 km
Bewolking: Helder
ELLX 221520Z 10004KT 030V160 CAVOK 24/10 Q1025 NOSIG
EDDL - Dusseldorf Germany
Afstand tot: NO 93 km
Gewijzigd: 22-08-2019 17:20
Helder  
Helder  
   Wind: Westen 9.3 km/h
Wind: Westen 9.3 km/h
Temperatuur: 26°C
Dauwpunt: 9°C
Vochtigheid: 34%
Barometer: 1024 hPa
Zicht: meer dan 10 km
Bewolking: Helder
EDDL 221520Z 28005KT 230V340 CAVOK 26/09 Q1024 NOSIG
EDDF - Frankfurt Germany
Afstand tot: ZO 11 km
Gewijzigd: 22-08-2019 17:20
Helder  
Helder  
   Wind: varieert 7.4 km/h
Wind: varieert 7.4 km/h
Temperatuur: 26°C
Dauwpunt: 9°C
Vochtigheid: 34%
Barometer: 1024 hPa
Zicht: meer dan 10 km
Bewolking: Helder
EDDF 221520Z VRB04KT CAVOK 26/09 Q1024 NOSIG

Script ontwikkeld door  Saratoga-weather.org Aangepast voor de template door  Weerstation Leuven

U vindt ons ook hier:

Weather Underground

WeatherlinkIP

Apparatuur in gebruik:

Weerstation
Davis VP2

Weerprogramma
Meteobridge

Weercomputer
Meteobridge

Webleverancier
Robohost

Davis VP2

Meteobridge

Meteobridge

Robohost